Time;durP1;ratioP1;P1;durP2;ratioP2;P2;SDS_P1;SDS_P2;PMS_P1;PMS_P2;Temp;Humidity;BMP_temperature;BMP_pressure;BME280_temperature;BME280_humidity;BME280_pressure;Samples;Min_cycle;Max_cycle;Signal;HPM_P1;HPM_P2
2022/06/29 00:02:03;;;;;;;3.78;1.65;;;18.20;99.90;;;;;;5043279;28;38288;-78
2022/06/29 00:04:29;;;;;;;5.82;1.40;;;18.20;99.90;;;;;;5042393;28;36550;-78
2022/06/29 00:06:55;;;;;;;3.78;2.00;;;18.20;99.90;;;;;;5041640;28;37919;-78
2022/06/29 00:09:21;;;;;;;3.88;1.88;;;18.20;99.90;;;;;;5040925;28;37630;-78
2022/06/29 00:11:48;;;;;;;3.78;2.10;;;18.10;99.90;;;;;;5043726;28;37477;-79
2022/06/29 00:14:14;;;;;;;4.32;2.03;;;18.10;99.90;;;;;;5041817;28;36774;-78
2022/06/29 00:16:40;;;;;;;8.75;2.13;;;18.10;99.90;;;;;;5038292;28;37679;-78
2022/06/29 00:19:06;;;;;;;4.68;2.05;;;18.00;99.90;;;;;;5038422;28;38662;-78
2022/06/29 00:21:33;;;;;;;5.18;2.20;;;18.00;99.90;;;;;;5044047;28;38077;-78
2022/06/29 00:23:59;;;;;;;4.50;2.05;;;18.00;99.90;;;;;;5044491;28;36183;-79
2022/06/29 00:26:27;;;;;;;6.57;2.42;;;18.10;99.90;;;;;;5044295;28;37504;-78
2022/06/29 00:28:53;;;;;;;5.13;2.05;;;18.10;99.90;;;;;;5058214;28;37962;-77
2022/06/29 00:31:19;;;;;;;4.55;2.10;;;18.10;99.90;;;;;;5062741;28;38460;-77
2022/06/29 00:33:45;;;;;;;5.38;2.00;;;18.10;99.90;;;;;;5047153;28;37487;-78
2022/06/29 00:36:12;;;;;;;7.97;2.50;;;18.10;99.90;;;;;;5061125;28;37536;-78
2022/06/29 00:38:38;;;;;;;5.10;2.35;;;18.10;99.90;;;;;;5040374;28;39497;-78
2022/06/29 00:41:04;;;;;;;5.88;2.50;;;18.00;99.90;;;;;;5040895;28;37394;-78
2022/06/29 00:43:39;;;;;;;6.90;2.38;;;18.00;99.90;;;;;;5043991;28;35893;-79
2022/06/29 00:46:06;;;;;;;5.35;2.25;;;18.00;99.90;;;;;;5056793;28;38446;-79
2022/06/29 00:48:32;;;;;;;5.45;2.10;;;18.10;99.90;;;;;;5044328;28;39633;-79
2022/06/29 00:51:02;;;;;;;4.95;1.80;;;18.00;99.90;;;;;;5043844;28;39228;-78
2022/06/29 00:53:32;;;;;;;5.25;2.10;;;18.00;99.90;;;;;;5041229;28;47526;-78
2022/06/29 00:56:01;;;;;;;3.33;2.15;;;18.00;99.90;;;;;;5058589;28;38414;-79
2022/06/29 00:58:28;;;;;;;5.15;2.10;;;18.00;99.90;;;;;;5043798;28;48097;-77
2022/06/29 01:01:01;;;;;;;5.03;2.25;;;18.00;99.90;;;;;;5058825;28;37121;-79
2022/06/29 01:03:27;;;;;;;4.75;1.98;;;17.90;99.90;;;;;;5045560;28;49552;-78
2022/06/29 01:05:54;;;;;;;4.70;2.20;;;17.90;99.90;;;;;;5042779;28;38396;-78
2022/06/29 01:08:20;;;;;;;3.85;2.08;;;17.90;99.90;;;;;;5062016;28;38361;-78
2022/06/29 01:10:47;;;;;;;3.58;1.80;;;17.80;99.90;;;;;;5045478;28;39069;-78
2022/06/29 01:13:13;;;;;;;4.80;2.13;;;17.80;99.90;;;;;;5040799;28;38097;-78
2022/06/29 01:15:40;;;;;;;5.25;2.53;;;17.80;99.90;;;;;;5041534;28;38887;-77
2022/06/29 01:18:07;;;;;;;4.55;2.30;;;17.80;99.90;;;;;;5042848;28;39004;-78
2022/06/29 01:20:34;;;;;;;5.90;2.20;;;17.70;99.90;;;;;;5060824;28;37752;-78
2022/06/29 01:23:00;;;;;;;8.35;2.38;;;17.70;99.90;;;;;;5041598;28;37509;-78
2022/06/29 01:25:26;;;;;;;4.88;1.73;;;17.60;99.90;;;;;;5044892;28;38912;-77
2022/06/29 01:27:52;;;;;;;7.65;2.42;;;17.60;99.90;;;;;;5059606;28;39100;-77
2022/06/29 01:30:18;;;;;;;4.03;2.30;;;17.50;99.90;;;;;;5055513;28;38217;-77
2022/06/29 01:32:44;;;;;;;4.60;2.40;;;17.50;99.90;;;;;;5056358;28;36372;-79
2022/06/29 01:35:12;;;;;;;4.10;2.00;;;17.40;99.90;;;;;;5054853;28;37830;-79
2022/06/29 01:37:40;;;;;;;3.72;2.78;;;17.40;99.90;;;;;;5050992;28;37819;-79
2022/06/29 01:40:08;;;;;;;5.53;2.55;;;17.40;99.90;;;;;;5039622;28;37206;-78
2022/06/29 01:42:34;;;;;;;4.68;2.20;;;17.30;99.90;;;;;;5042176;28;36867;-77
2022/06/29 01:45:01;;;;;;;5.78;2.85;;;17.20;99.90;;;;;;5041512;28;39503;-78
2022/06/29 01:47:27;;;;;;;3.85;2.13;;;17.30;99.90;;;;;;5039653;28;39912;-78
2022/06/29 01:49:53;;;;;;;4.18;2.15;;;17.20;99.90;;;;;;5055566;28;37316;-79
2022/06/29 01:52:19;;;;;;;5.93;2.50;;;17.10;99.90;;;;;;5058708;28;36733;-79
2022/06/29 01:54:45;;;;;;;7.68;2.50;;;17.10;99.90;;;;;;5037913;28;39050;-79
2022/06/29 01:57:11;;;;;;;7.72;2.60;;;17.10;99.90;;;;;;5045307;28;39069;-79
2022/06/29 01:59:37;;;;;;;7.05;2.85;;;17.10;99.90;;;;;;5040890;28;37595;-79
2022/06/29 02:02:03;;;;;;;6.05;2.95;;;17.10;99.90;;;;;;5048438;28;37759;-79
2022/06/29 02:04:30;;;;;;;3.03;2.30;;;17.10;99.90;;;;;;5043901;28;38787;-79
2022/06/29 02:06:56;;;;;;;3.88;2.22;;;17.10;99.90;;;;;;5048740;28;38746;-79
2022/06/29 02:09:22;;;;;;;5.45;2.38;;;17.10;99.90;;;;;;5060588;28;38153;-78
2022/06/29 02:11:48;;;;;;;6.07;2.45;;;17.10;99.90;;;;;;5043721;28;37039;-80
2022/06/29 02:14:14;;;;;;;3.95;2.10;;;17.10;99.90;;;;;;5055859;28;40155;-80
2022/06/29 02:16:40;;;;;;;5.78;2.70;;;17.00;99.90;;;;;;5060234;28;37862;-79
2022/06/29 02:19:07;;;;;;;2.90;2.33;;;17.00;99.90;;;;;;5045813;28;39216;-80
2022/06/29 02:21:33;;;;;;;4.47;2.75;;;17.00;99.90;;;;;;5057775;28;36405;-79
2022/06/29 02:23:59;;;;;;;5.38;2.90;;;17.00;99.90;;;;;;5063095;28;37485;-79
2022/06/29 02:26:25;;;;;;;4.05;2.63;;;16.90;99.90;;;;;;5064592;28;38949;-80
2022/06/29 02:28:51;;;;;;;5.53;2.80;;;16.90;99.90;;;;;;5047181;28;38460;-79
2022/06/29 02:36:47;;;;;;;3.22;2.20;;;16.80;99.90;;;;;;5046922;28;40111;-79
2022/06/29 02:39:13;;;;;;;6.43;3.28;;;16.80;99.90;;;;;;5061109;28;37487;-79
2022/06/29 02:41:39;;;;;;;7.00;2.85;;;16.70;99.90;;;;;;5048012;28;36933;-80
2022/06/29 02:44:05;;;;;;;4.75;2.95;;;16.70;99.90;;;;;;5043200;28;38653;-80
2022/06/29 02:46:31;;;;;;;5.32;2.88;;;16.70;99.90;;;;;;5061055;28;38115;-79
2022/06/29 02:48:57;;;;;;;3.92;3.00;;;16.80;99.90;;;;;;5061407;28;37568;-79
2022/06/29 02:51:25;;;;;;;4.35;2.85;;;16.70;99.90;;;;;;5062593;28;36491;-80
2022/06/29 02:53:51;;;;;;;7.28;3.22;;;16.60;99.90;;;;;;5055559;28;39463;-80
2022/06/29 02:56:17;;;;;;;6.95;3.15;;;16.50;99.90;;;;;;5049755;28;36851;-79
2022/06/29 02:58:43;;;;;;;5.70;2.70;;;16.50;99.90;;;;;;5064851;28;37684;-79
2022/06/29 03:01:09;;;;;;;4.50;3.20;;;16.50;99.90;;;;;;5040658;28;36661;-79
2022/06/29 03:03:38;;;;;;;4.57;3.20;;;16.50;99.90;;;;;;5047426;28;38354;-79
2022/06/29 03:06:04;;;;;;;3.78;2.65;;;16.40;99.90;;;;;;5043530;28;39087;-79
2022/06/29 03:08:30;;;;;;;4.32;3.22;;;16.40;99.90;;;;;;5045763;28;38726;-80
2022/06/29 03:10:56;;;;;;;2.83;2.63;;;16.40;99.90;;;;;;5058491;28;36159;-80
2022/06/29 03:13:22;;;;;;;4.55;2.80;;;16.40;99.90;;;;;;5048624;28;38559;-80
2022/06/29 03:15:48;;;;;;;3.80;3.10;;;16.40;99.90;;;;;;5047113;28;38695;-79
2022/06/29 03:18:15;;;;;;;5.53;3.25;;;16.40;99.90;;;;;;5051880;28;38297;-78
2022/06/29 03:20:41;;;;;;;4.95;3.42;;;16.40;99.90;;;;;;5048256;28;35923;-80
2022/06/29 03:23:14;;;;;;;5.15;3.17;;;16.30;99.90;;;;;;5058976;28;38834;-76
2022/06/29 03:25:41;;;;;;;6.10;3.15;;;16.30;99.90;;;;;;5062888;28;40035;-79
2022/06/29 03:28:07;;;;;;;5.60;3.90;;;16.20;99.90;;;;;;5043955;28;39508;-79
2022/06/29 03:30:33;;;;;;;4.10;3.22;;;16.20;99.90;;;;;;5057368;28;35487;-79
2022/06/29 03:32:59;;;;;;;3.67;3.25;;;16.10;99.90;;;;;;5043686;28;38775;-79
2022/06/29 03:35:25;;;;;;;4.40;3.80;;;16.10;99.90;;;;;;5056794;28;38070;-80
2022/06/29 03:37:51;;;;;;;3.42;3.10;;;16.10;99.90;;;;;;5043863;28;38580;-79
2022/06/29 03:40:17;;;;;;;6.53;4.07;;;16.10;99.90;;;;;;5038683;28;38057;-80
2022/06/29 03:42:43;;;;;;;5.30;3.67;;;16.00;99.90;;;;;;5042404;28;38754;-80
2022/06/29 03:45:10;;;;;;;5.60;3.63;;;16.00;99.90;;;;;;5057772;28;37884;-80
2022/06/29 03:47:36;;;;;;;6.07;3.92;;;16.00;99.90;;;;;;5044255;28;38587;-80
2022/06/29 03:50:02;;;;;;;7.57;4.53;;;16.00;99.90;;;;;;5041209;28;37349;-79
2022/06/29 03:52:28;;;;;;;8.27;5.10;;;16.00;99.90;;;;;;5057379;28;38840;-80
2022/06/29 03:54:54;;;;;;;4.43;3.80;;;16.00;99.90;;;;;;5044748;28;39477;-79
2022/06/29 03:57:20;;;;;;;4.70;3.65;;;16.10;99.90;;;;;;5058337;28;38919;-78
2022/06/29 03:59:46;;;;;;;8.07;4.20;;;16.10;99.90;;;;;;5040769;28;37898;-79
2022/06/29 04:02:13;;;;;;;6.50;4.07;;;16.10;99.90;;;;;;5058961;28;39396;-79
2022/06/29 04:04:39;;;;;;;8.23;4.13;;;16.20;99.90;;;;;;5041328;28;35834;-79
2022/06/29 04:07:07;;;;;;;6.25;3.88;;;16.20;99.90;;;;;;5044353;28;38927;-80
2022/06/29 04:09:34;;;;;;;7.15;3.90;;;16.20;99.90;;;;;;5044658;28;38188;-79
2022/06/29 04:12:00;;;;;;;7.65;4.53;;;16.20;99.90;;;;;;5061645;28;41345;-81
2022/06/29 04:14:28;;;;;;;6.53;4.28;;;16.20;99.90;;;;;;5045513;28;37573;-81
2022/06/29 04:16:56;;;;;;;9.85;4.60;;;16.30;99.90;;;;;;5043755;28;37853;-81
2022/06/29 04:19:23;;;;;;;4.78;4.13;;;16.30;99.90;;;;;;5044863;28;36033;-79
2022/06/29 04:21:50;;;;;;;8.20;3.97;;;16.30;99.90;;;;;;5044558;28;38601;-81
2022/06/29 04:24:17;;;;;;;6.97;4.70;;;16.30;99.90;;;;;;5048705;28;39152;-80
2022/06/29 04:26:44;;;;;;;7.57;4.90;;;16.40;99.90;;;;;;5043506;28;39180;-79
2022/06/29 04:29:10;;;;;;;8.70;4.75;;;16.50;99.90;;;;;;5042005;27;37237;-79
2022/06/29 04:31:37;;;;;;;6.88;4.82;;;16.50;99.90;;;;;;5042880;28;39514;-80
2022/06/29 04:34:03;;;;;;;8.75;4.97;;;16.60;99.90;;;;;;5064512;28;38037;-79
2022/06/29 04:36:30;;;;;;;7.28;4.55;;;16.70;99.90;;;;;;5042009;28;38031;-80
2022/06/29 04:39:05;;;;;;;5.90;4.78;;;16.70;99.90;;;;;;5032117;27;20390;-78
2022/06/29 04:41:31;;;;;;;7.30;5.00;;;16.80;99.90;;;;;;5019327;28;39223;-78
2022/06/29 04:43:58;;;;;;;8.18;4.90;;;16.80;99.90;;;;;;5006811;28;37329;-78
2022/06/29 04:46:24;;;;;;;8.60;5.22;;;16.80;99.90;;;;;;5003123;28;39011;-77
2022/06/29 04:48:56;;;;;;;7.57;5.05;;;16.90;99.90;;;;;;5042303;28;38560;-77
2022/06/29 04:51:23;;;;;;;7.25;5.70;;;17.00;99.90;;;;;;5009942;28;37528;-77
2022/06/29 04:53:53;;;;;;;8.48;5.13;;;17.00;99.90;;;;;;5040731;28;37726;-77
2022/06/29 04:56:22;;;;;;;9.27;5.40;;;17.10;99.90;;;;;;5009434;28;39979;-77
2022/06/29 04:58:50;;;;;;;6.53;4.45;;;17.10;99.90;;;;;;5040566;28;39009;-78
2022/06/29 05:01:18;;;;;;;7.72;4.32;;;17.20;99.90;;;;;;5010252;28;38462;-78
2022/06/29 05:03:44;;;;;;;7.88;4.85;;;17.30;99.90;;;;;;5010357;28;38209;-77
2022/06/29 05:06:10;;;;;;;6.57;4.25;;;17.40;99.90;;;;;;5026003;28;40603;-77
2022/06/29 05:08:36;;;;;;;7.05;4.80;;;17.80;99.90;;;;;;5029917;28;35240;-77
2022/06/29 05:11:02;;;;;;;6.97;4.03;;;18.00;99.90;;;;;;5028079;28;37235;-77
2022/06/29 05:13:28;;;;;;;6.18;4.57;;;18.30;99.90;;;;;;5029086;28;37165;-75
2022/06/29 05:15:55;;;;;;;5.78;4.13;;;18.60;99.90;;;;;;5033747;28;38631;-75
2022/06/29 05:18:21;;;;;;;7.85;4.15;;;18.80;99.90;;;;;;5041089;28;39117;-76
2022/06/29 05:20:47;;;;;;;6.28;4.43;;;19.00;99.90;;;;;;5063232;28;38024;-76
2022/06/29 05:23:13;;;;;;;6.72;3.67;;;19.20;99.90;;;;;;5033289;28;37789;-77
2022/06/29 05:25:39;;;;;;;7.55;4.43;;;19.30;99.90;;;;;;5036318;28;40945;-78
2022/06/29 05:28:07;;;;;;;7.75;4.03;;;19.40;99.90;;;;;;5032616;27;38126;-77
2022/06/29 05:30:34;;;;;;;6.18;4.00;;;19.50;99.90;;;;;;5039175;28;37425;-76
2022/06/29 05:33:00;;;;;;;6.47;4.13;;;19.60;99.90;;;;;;5040561;28;37540;-76
2022/06/29 05:35:29;;;;;;;6.00;4.00;;;19.80;99.90;;;;;;5033645;28;39022;-75
2022/06/29 05:37:56;;;;;;;5.78;3.85;;;20.00;99.90;;;;;;5035131;28;39370;-76
2022/06/29 05:40:22;;;;;;;7.63;4.35;;;20.10;99.90;;;;;;5029539;28;37812;-75
2022/06/29 05:42:48;;;;;;;5.25;3.95;;;20.20;99.90;;;;;;5031009;28;37733;-76
2022/06/29 05:45:14;;;;;;;5.38;3.92;;;20.30;99.90;;;;;;5045846;28;38026;-76
2022/06/29 05:47:40;;;;;;;5.55;3.60;;;20.30;99.90;;;;;;5038919;28;39065;-76
2022/06/29 05:50:10;;;;;;;7.00;4.43;;;20.50;99.90;;;;;;5039133;28;38030;-77
2022/06/29 05:52:37;;;;;;;6.95;3.90;;;20.70;99.90;;;;;;5014880;28;37747;-77
2022/06/29 05:55:06;;;;;;;6.20;4.13;;;20.90;99.90;;;;;;5023531;28;38205;-79
2022/06/29 05:57:33;;;;;;;5.90;3.70;;;21.10;99.90;;;;;;5027329;28;38839;-79
2022/06/29 06:00:01;;;;;;;5.78;3.80;;;21.20;99.90;;;;;;5052537;28;37105;-78
2022/06/29 06:02:27;;;;;;;8.10;4.15;;;21.00;99.90;;;;;;5020541;28;47175;-79
2022/06/29 06:04:53;;;;;;;6.20;3.58;;;21.00;99.90;;;;;;5024289;28;39658;-79
2022/06/29 06:07:19;;;;;;;6.88;4.28;;;21.00;99.90;;;;;;5057372;28;38848;-79
2022/06/29 06:09:46;;;;;;;5.63;4.10;;;21.10;99.90;;;;;;5047589;28;38880;-78
2022/06/29 06:12:12;;;;;;;8.80;4.47;;;21.10;99.90;;;;;;5042915;28;37875;-78
2022/06/29 06:14:38;;;;;;;8.93;4.47;;;21.30;99.90;;;;;;5024893;28;39100;-78
2022/06/29 06:17:04;;;;;;;8.35;4.47;;;21.40;99.90;;;;;;5025526;28;38621;-79
2022/06/29 06:19:30;;;;;;;7.10;3.47;;;21.40;99.90;;;;;;5026138;28;38263;-79
2022/06/29 06:21:57;;;;;;;8.55;4.72;;;21.30;99.90;;;;;;5023996;28;39294;-78
2022/06/29 06:24:23;;;;;;;8.07;4.15;;;21.30;99.90;;;;;;5025336;28;38932;-79
2022/06/29 06:26:49;;;;;;;6.95;4.85;;;21.20;99.90;;;;;;5025711;28;39380;-78
2022/06/29 06:29:15;;;;;;;8.52;4.57;;;21.20;99.90;;;;;;5029151;28;37464;-79
2022/06/29 06:31:41;;;;;;;9.27;4.82;;;21.50;99.90;;;;;;5054745;28;38049;-79
2022/06/29 06:34:07;;;;;;;9.27;4.63;;;21.50;99.90;;;;;;5024260;28;39372;-79
2022/06/29 06:36:33;;;;;;;8.85;4.10;;;21.40;99.90;;;;;;5026347;28;39810;-79
2022/06/29 06:38:59;;;;;;;11.00;4.70;;;21.50;99.90;;;;;;5023355;28;36900;-78
2022/06/29 06:41:25;;;;;;;8.70;4.22;;;21.50;99.90;;;;;;5053473;28;39293;-78
2022/06/29 06:43:57;;;;;;;6.65;4.10;;;21.50;99.90;;;;;;5019180;28;38904;-79
2022/06/29 06:46:24;;;;;;;7.80;4.05;;;21.90;99.90;;;;;;5024705;28;39639;-79
2022/06/29 06:48:50;;;;;;;5.00;3.30;;;22.10;99.90;;;;;;5025535;28;36335;-78
2022/06/29 06:51:21;;;;;;;3.55;3.17;;;22.40;99.90;;;;;;5020194;28;37081;-79
2022/06/29 06:53:47;;;;;;;10.40;4.45;;;22.60;99.90;;;;;;5023559;28;38786;-79
2022/06/29 06:56:15;;;;;;;5.82;3.85;;;22.30;99.90;;;;;;5020559;28;38037;-79
2022/06/29 06:58:41;;;;;;;6.75;4.00;;;21.90;99.90;;;;;;5036583;28;37997;-79
2022/06/29 07:01:09;;;;;;;4.18;2.95;;;21.90;99.90;;;;;;5021751;28;37209;-79
2022/06/29 07:03:36;;;;;;;6.18;3.55;;;22.20;99.90;;;;;;5022437;28;38865;-78
2022/06/29 07:06:06;;;;;;;6.10;3.97;;;22.60;99.90;;;;;;5023633;28;37600;-79
2022/06/29 07:08:34;;;;;;;4.65;3.30;;;22.90;99.90;;;;;;5023673;28;38974;-79
2022/06/29 07:11:01;;;;;;;6.18;4.03;;;23.10;99.90;;;;;;5020427;28;38377;-80
2022/06/29 07:13:28;;;;;;;6.50;4.07;;;22.80;99.90;;;;;;5021699;28;48782;-79
2022/06/29 07:15:55;;;;;;;7.82;4.10;;;23.10;99.90;;;;;;5022461;28;39090;-79
2022/06/29 07:18:22;;;;;;;6.63;4.05;;;23.00;99.90;;;;;;5024092;28;37195;-79
2022/06/29 07:20:48;;;;;;;8.40;4.10;;;23.20;99.90;;;;;;5025135;28;39146;-79
2022/06/29 07:23:14;;;;;;;9.10;4.45;;;23.30;99.90;;;;;;5055776;28;39385;-79
2022/06/29 07:25:41;;;;;;;7.03;3.95;;;23.10;99.90;;;;;;5021486;28;39025;-79
2022/06/29 07:28:07;;;;;;;5.80;3.67;;;22.70;99.90;;;;;;5023317;28;36423;-79
2022/06/29 07:30:33;;;;;;;12.73;4.30;;;23.00;99.90;;;;;;5024924;28;36315;-79
2022/06/29 07:32:59;;;;;;;7.47;3.42;;;23.20;99.90;;;;;;5020426;28;39423;-79
2022/06/29 07:35:26;;;;;;;10.35;3.80;;;23.40;99.90;;;;;;5030878;28;36901;-79
2022/06/29 07:37:53;;;;;;;6.32;3.60;;;23.60;99.90;;;;;;5037482;28;38960;-78
2022/06/29 07:40:20;;;;;;;7.45;4.10;;;23.20;99.90;;;;;;5025568;28;38077;-79
2022/06/29 07:42:46;;;;;;;7.85;3.70;;;23.20;99.90;;;;;;5058166;28;40062;-79
2022/06/29 07:45:13;;;;;;;7.05;3.28;;;23.30;99.90;;;;;;5054174;28;39737;-80
2022/06/29 07:47:42;;;;;;;6.85;3.25;;;23.80;99.90;;;;;;5022664;28;38629;-79
2022/06/29 07:50:11;;;;;;;7.18;3.45;;;24.10;99.90;;;;;;5023073;28;37288;-80
2022/06/29 07:52:39;;;;;;;6.55;2.95;;;24.40;99.90;;;;;;5018919;28;40396;-79
2022/06/29 07:55:06;;;;;;;3.85;2.78;;;24.40;99.90;;;;;;5052189;28;41108;-79
2022/06/29 07:57:32;;;;;;;6.20;2.70;;;24.50;99.90;;;;;;5020713;28;37314;-80
2022/06/29 07:59:58;;;;;;;3.90;2.40;;;23.90;99.90;;;;;;5023048;28;37426;-80
2022/06/29 08:02:24;;;;;;;3.88;2.30;;;23.70;99.90;;;;;;5015918;28;38483;-80
2022/06/29 08:04:50;;;;;;;5.63;2.30;;;24.00;99.90;;;;;;5025150;28;38852;-80
2022/06/29 08:07:16;;;;;;;5.32;2.80;;;24.30;99.90;;;;;;5055746;28;38921;-80
2022/06/29 08:09:42;;;;;;;9.70;3.78;;;24.30;99.90;;;;;;5054399;28;38124;-80
2022/06/29 08:12:09;;;;;;;7.25;2.83;;;24.40;99.90;;;;;;5017406;28;39443;-79
2022/06/29 08:14:35;;;;;;;6.80;3.33;;;24.50;99.90;;;;;;5020818;28;39088;-79
2022/06/29 08:17:01;;;;;;;4.00;2.55;;;24.20;99.90;;;;;;5019148;28;37939;-80
2022/06/29 08:19:27;;;;;;;4.47;2.40;;;24.10;99.90;;;;;;5023379;28;37578;-80
2022/06/29 08:21:54;;;;;;;4.75;2.85;;;24.60;99.90;;;;;;5024405;28;39841;-80
2022/06/29 08:24:20;;;;;;;5.93;3.30;;;24.50;99.90;;;;;;5017879;28;39413;-78
2022/06/29 08:26:46;;;;;;;4.30;2.65;;;24.90;99.90;;;;;;5022640;28;37396;-78
2022/06/29 08:29:12;;;;;;;4.93;2.67;;;25.10;99.90;;;;;;5022574;28;39186;-78
2022/06/29 08:31:38;;;;;;;5.63;2.08;;;25.30;99.90;;;;;;5039512;28;39256;-78
2022/06/29 08:34:08;;;;;;;7.13;2.67;;;25.50;99.90;;;;;;5048557;28;38817;-78
2022/06/29 08:36:37;;;;;;;3.30;1.95;;;25.50;99.90;;;;;;5026066;28;39157;-78
2022/06/29 08:39:03;;;;;;;3.75;1.95;;;25.60;99.90;;;;;;5023428;28;39731;-77
2022/06/29 08:41:30;;;;;;;3.85;1.88;;;25.80;99.90;;;;;;5024233;28;39485;-78
2022/06/29 08:44:02;;;;;;;4.70;2.40;;;25.80;99.90;;;;;;5053565;28;39275;-79
2022/06/29 08:46:28;;;;;;;4.85;2.03;;;25.80;99.90;;;;;;5025893;28;47611;-78
2022/06/29 08:48:54;;;;;;;2.72;1.80;;;25.90;99.90;;;;;;5035089;28;37943;-78
2022/06/29 08:51:23;;;;;;;3.83;2.05;;;25.90;99.90;;;;;;5029444;28;40296;-78
2022/06/29 08:53:51;;;;;;;5.15;2.20;;;25.90;99.90;;;;;;5023886;28;39594;-78
2022/06/29 08:56:18;;;;;;;5.65;1.83;;;25.60;99.90;;;;;;5017445;28;37975;-78
2022/06/29 08:58:45;;;;;;;4.00;2.10;;;25.60;99.90;;;;;;5015750;28;36141;-78
2022/06/29 09:01:12;;;;;;;3.88;2.20;;;25.60;99.90;;;;;;5017543;28;38690;-78
2022/06/29 09:03:40;;;;;;;8.73;2.42;;;25.80;99.90;;;;;;5023401;28;38952;-78
2022/06/29 09:06:06;;;;;;;4.38;2.63;;;25.90;99.90;;;;;;5021956;28;38446;-78
2022/06/29 09:08:33;;;;;;;5.55;2.13;;;25.90;99.90;;;;;;5022669;28;37683;-78
2022/06/29 09:11:22;;;;;;;3.20;1.90;;;25.90;99.90;;;;;;5019963;28;38972;-78
2022/06/29 09:14:17;;;;;;;3.05;2.13;;;26.30;99.90;;;;;;5018993;28;48906;-78
2022/06/29 09:16:49;;;;;;;5.00;1.98;;;26.40;99.90;;;;;;5056460;28;47102;-77
2022/06/29 09:19:16;;;;;;;4.65;1.67;;;26.20;99.90;;;;;;5021479;28;37819;-78
2022/06/29 09:21:50;;;;;;;3.08;1.55;;;26.30;99.90;;;;;;5023549;28;39734;-78
2022/06/29 09:24:18;;;;;;;2.97;1.50;;;26.50;99.90;;;;;;5024861;28;38488;-78
2022/06/29 09:26:50;;;;;;;5.43;1.77;;;26.70;99.90;;;;;;5045582;28;39095;-78
2022/06/29 09:29:21;;;;;;;2.95;1.50;;;26.50;99.90;;;;;;5008797;28;38164;-79
2022/06/29 09:32:06;;;;;;;5.07;1.63;;;26.60;99.90;;;;;;5024913;28;38955;-79
2022/06/29 09:34:42;;;;;;;2.47;1.30;;;26.90;99.90;;;;;;5023080;28;49091;-78
2022/06/29 09:37:19;;;;;;;3.50;1.40;;;27.20;99.90;;;;;;5057489;28;38144;-79
2022/06/29 09:39:53;;;;;;;3.95;2.05;;;26.70;99.90;;;;;;5021507;28;37796;-79
2022/06/29 09:42:24;;;;;;;3.35;1.95;;;26.40;99.90;;;;;;5027059;28;38817;-79
2022/06/29 09:44:50;;;;;;;3.90;1.80;;;26.70;99.90;;;;;;5019295;28;38360;-79
2022/06/29 09:47:19;;;;;;;5.03;1.33;;;26.80;99.90;;;;;;5022231;28;37929;-78
2022/06/29 09:49:48;;;;;;;4.78;1.77;;;26.90;99.90;;;;;;5023704;28;36167;-78
2022/06/29 09:52:17;;;;;;;4.22;1.58;;;26.60;99.90;;;;;;5061684;28;41094;-79
2022/06/29 09:54:51;;;;;;;4.32;1.95;;;26.70;99.90;;;;;;5009875;28;37607;-79
2022/06/29 09:57:20;;;;;;;8.82;2.33;;;27.00;99.90;;;;;;5003755;28;38191;-80
2022/06/29 10:02:58;;;;;;;5.55;2.67;;;27.70;99.90;;;;;;5021796;28;49123;-79
2022/06/29 10:05:28;;;;;;;3.55;2.38;;;28.10;99.90;;;;;;5030363;28;39042;-80
2022/06/29 10:07:55;;;;;;;4.30;2.30;;;28.00;99.90;;;;;;5023674;28;38445;-79
2022/06/29 10:10:24;;;;;;;7.43;2.78;;;27.80;99.90;;;;;;5033035;28;37658;-79
2022/06/29 10:16:28;;;;;;;6.20;3.05;;;27.30;99.90;;;;;;5024404;28;49093;-79
2022/06/29 10:19:12;;;;;;;7.90;3.30;;;27.50;99.90;;;;;;5020056;28;47615;-78
2022/06/29 10:21:39;;;;;;;5.47;2.20;;;27.10;99.90;;;;;;4996956;28;48793;-78
2022/06/29 10:24:05;;;;;;;6.10;1.85;;;27.60;99.90;;;;;;5004449;28;37724;-79
2022/06/29 10:26:37;;;;;;;5.63;1.88;;;28.00;99.90;;;;;;5004225;28;39481;-78
2022/06/29 10:29:06;;;;;;;4.13;2.10;;;28.20;99.90;;;;;;5048213;28;38348;-78
2022/06/29 10:31:51;;;;;;;5.18;1.30;;;28.50;99.90;;;;;;5052553;28;37235;-79
2022/06/29 10:34:40;;;;;;;2.20;0.98;;;28.70;99.90;;;;;;5005472;28;39564;-79
2022/06/29 10:37:14;;;;;;;3.50;1.02;;;28.40;99.90;;;;;;4987851;28;39059;-78
2022/06/29 10:39:49;;;;;;;2.88;1.23;;;28.50;99.90;;;;;;5031984;28;38816;-78
2022/06/29 10:45:06;;;;;;;2.22;1.40;;;28.70;99.90;;;;;;5001925;28;39135;-79
2022/06/29 10:47:33;;;;;;;4.88;1.13;;;28.70;99.90;;;;;;5002930;28;38965;-80
2022/06/29 10:50:14;;;;;;;2.85;1.23;;;28.90;99.90;;;;;;4998149;28;37605;-79
2022/06/29 10:52:41;;;;;;;;;;;28.80;99.90;;;;;;5008013;28;48685;-79
2022/06/29 10:55:08;;;;;;;4.55;1.35;;;28.70;99.90;;;;;;5056876;28;40546;-79
2022/06/29 10:57:38;;;;;;;4.55;1.50;;;28.80;99.90;;;;;;5049390;28;39788;-79
2022/06/29 11:00:09;;;;;;;2.20;1.13;;;28.00;99.90;;;;;;5024816;28;38091;-78
2022/06/29 11:02:37;;;;;;;4.70;0.90;;;28.10;99.90;;;;;;5034315;28;36434;-79
2022/06/29 11:05:04;;;;;;;5.05;1.38;;;28.60;99.90;;;;;;5024416;28;39296;-78
2022/06/29 11:13:00;;;;;;;3.70;1.30;;;27.50;99.90;;;;;;5027593;28;37858;-78
2022/06/29 11:15:41;;;;;;;3.85;1.10;;;27.70;99.90;;;;;;5017488;28;37791;-78
2022/06/29 11:18:23;;;;;;;3.80;1.15;;;27.60;99.90;;;;;;5011673;28;38425;-78
2022/06/29 11:20:50;;;;;;;;;;;27.70;99.90;;;;;;5023086;28;37009;-78
2022/06/29 11:23:22;;;;;;;3.13;1.25;;;27.40;99.90;;;;;;5023141;28;37537;-79
2022/06/29 11:25:49;;;;;;;5.78;1.30;;;27.10;99.90;;;;;;5020437;28;38962;-79
2022/06/29 11:28:20;;;;;;;8.52;1.20;;;27.20;99.90;;;;;;5028383;28;38656;-78
2022/06/29 11:31:05;;;;;;;4.63;1.10;;;27.40;99.90;;;;;;5024637;28;37811;-79
2022/06/29 11:33:33;;;;;;;2.47;1.20;;;27.80;99.90;;;;;;5004664;28;47387;-78
2022/06/29 11:36:18;;;;;;;3.75;0.93;;;27.60;99.90;;;;;;5000707;28;39366;-79
2022/06/29 11:38:47;;;;;;;3.25;1.40;;;27.30;99.90;;;;;;5008928;28;48456;-79
2022/06/29 11:41:26;;;;;;;3.10;1.23;;;27.50;99.90;;;;;;5013954;28;40191;-79
2022/06/29 11:44:00;;;;;;;1.70;0.95;;;27.50;99.90;;;;;;5025050;28;36597;-79
2022/06/29 11:46:27;;;;;;;2.08;1.17;;;28.00;99.90;;;;;;5024136;28;41756;-79
2022/06/29 11:51:59;;;;;;;4.53;1.52;;;28.30;99.90;;;;;;5025684;28;49332;-78
2022/06/29 11:54:40;;;;;;;4.40;2.03;;;28.20;99.90;;;;;;5030807;28;36748;-78
2022/06/29 11:57:10;;;;;;;1.85;1.10;;;27.80;99.90;;;;;;5023583;28;38285;-79
2022/06/29 11:59:37;;;;;;;9.73;1.55;;;27.90;99.90;;;;;;5036207;28;37224;-79
2022/06/29 12:02:03;;;;;;;6.93;1.50;;;27.60;99.90;;;;;;5056075;28;38377;-79
2022/06/29 12:04:31;;;;;;;3.95;1.55;;;27.70;99.90;;;;;;5022845;28;37212;-79
2022/06/29 12:07:09;;;;;;;6.03;1.70;;;27.80;99.90;;;;;;5023938;28;38777;-78
2022/06/29 12:09:37;;;;;;;8.05;1.67;;;27.80;99.90;;;;;;5025231;28;47174;-79
2022/06/29 12:12:08;;;;;;;5.97;1.35;;;27.80;99.90;;;;;;5035039;28;37108;-79
2022/06/29 12:14:36;;;;;;;4.03;1.30;;;27.90;99.90;;;;;;5021972;28;36173;-79
2022/06/29 12:17:03;;;;;;;4.28;1.35;;;28.20;99.90;;;;;;5019724;28;39786;-79
2022/06/29 12:19:30;;;;;;;4.35;1.60;;;28.30;99.90;;;;;;5019979;28;38451;-79
2022/06/29 12:21:57;;;;;;;3.08;1.00;;;28.30;99.90;;;;;;5047516;28;36744;-79
2022/06/29 12:24:25;;;;;;;2.13;1.10;;;28.30;99.90;;;;;;5057130;28;37577;-78
2022/06/29 12:26:51;;;;;;;3.83;1.33;;;28.60;99.90;;;;;;5015737;28;39183;-79
2022/06/29 12:29:18;;;;;;;2.50;1.05;;;28.50;99.90;;;;;;5018956;28;37127;-79
2022/06/29 12:31:45;;;;;;;2.03;0.93;;;28.80;99.90;;;;;;5022243;28;37769;-80
2022/06/29 12:34:13;;;;;;;6.05;1.30;;;29.20;99.90;;;;;;5016463;28;38110;-79
2022/06/29 12:36:40;;;;;;;3.58;1.20;;;29.00;99.90;;;;;;5020527;28;39643;-79
2022/06/29 12:39:07;;;;;;;4.72;1.02;;;28.60;99.90;;;;;;5019976;28;39660;-79
2022/06/29 12:41:34;;;;;;;2.95;1.30;;;28.70;99.90;;;;;;5001338;28;36758;-80
2022/06/29 12:44:02;;;;;;;4.05;0.98;;;29.00;99.90;;;;;;5020459;28;38159;-78
2022/06/29 12:46:32;;;;;;;2.72;1.13;;;29.00;99.90;;;;;;5020407;28;47299;-80
2022/06/29 12:49:00;;;;;;;2.85;1.00;;;29.30;99.90;;;;;;5023761;28;37326;-79
2022/06/29 12:51:27;;;;;;;3.78;1.65;;;29.40;99.90;;;;;;5021511;28;46899;-80
2022/06/29 12:53:53;;;;;;;4.05;1.05;;;29.10;99.90;;;;;;5024006;28;37317;-79
2022/06/29 12:56:19;;;;;;;5.53;1.38;;;28.90;99.90;;;;;;5020964;28;39797;-79
2022/06/29 12:58:46;;;;;;;4.50;1.27;;;29.00;99.90;;;;;;5025597;28;38302;-79
2022/06/29 13:01:12;;;;;;;2.72;1.05;;;29.30;99.90;;;;;;5023923;28;37673;-79
2022/06/29 13:03:38;;;;;;;3.97;1.33;;;29.50;99.90;;;;;;5023110;28;37306;-79
2022/06/29 13:06:05;;;;;;;3.83;0.93;;;29.60;99.90;;;;;;5022735;28;39548;-80
2022/06/29 13:08:32;;;;;;;3.55;1.20;;;29.50;99.90;;;;;;5019601;28;38374;-79
2022/06/29 13:11:00;;;;;;;4.03;1.33;;;29.40;99.90;;;;;;5017656;28;37564;-79
2022/06/29 13:13:27;;;;;;;4.63;1.20;;;29.10;99.90;;;;;;5024862;28;38064;-79
2022/06/29 13:15:53;;;;;;;5.05;1.25;;;29.00;99.90;;;;;;5023610;28;38902;-79